sensor_id;sensor_type;location;lat;lon;timestamp;P1;durP1;ratioP1;P2;durP2;ratioP2
17826;SDS011;9038;48.208;16.308;2023-02-01T00:01:57;2.47;;;1.63;;
17826;SDS011;9038;48.208;16.308;2023-02-01T00:04:00;1.50;;;1.33;;
17826;SDS011;9038;48.208;16.308;2023-02-01T00:06:02;1.40;;;1.30;;
17826;SDS011;9038;48.208;16.308;2023-02-01T00:08:04;5.77;;;1.60;;
17826;SDS011;9038;48.208;16.308;2023-02-01T00:10:07;2.07;;;1.30;;
17826;SDS011;9038;48.208;16.308;2023-02-01T00:12:10;2.07;;;1.30;;
17826;SDS011;9038;48.208;16.308;2023-02-01T00:14:12;1.10;;;1.00;;
17826;SDS011;9038;48.208;16.308;2023-02-01T00:16:15;1.07;;;1.07;;
17826;SDS011;9038;48.208;16.308;2023-02-01T00:18:19;1.57;;;1.33;;
17826;SDS011;9038;48.208;16.308;2023-02-01T00:20:21;1.20;;;1.10;;
17826;SDS011;9038;48.208;16.308;2023-02-01T00:22:24;1.70;;;1.20;;
17826;SDS011;9038;48.208;16.308;2023-02-01T00:24:26;2.03;;;1.30;;
17826;SDS011;9038;48.208;16.308;2023-02-01T00:26:30;1.67;;;1.30;;
17826;SDS011;9038;48.208;16.308;2023-02-01T00:28:34;2.23;;;1.10;;
17826;SDS011;9038;48.208;16.308;2023-02-01T00:30:36;1.37;;;1.10;;
17826;SDS011;9038;48.208;16.308;2023-02-01T00:32:38;1.30;;;1.20;;
17826;SDS011;9038;48.208;16.308;2023-02-01T00:34:42;1.97;;;1.10;;
17826;SDS011;9038;48.208;16.308;2023-02-01T00:36:44;1.60;;;1.10;;
17826;SDS011;9038;48.208;16.308;2023-02-01T00:38:46;1.50;;;1.13;;
17826;SDS011;9038;48.208;16.308;2023-02-01T00:40:48;1.23;;;1.17;;
17826;SDS011;9038;48.208;16.308;2023-02-01T00:42:50;1.70;;;1.40;;
17826;SDS011;9038;48.208;16.308;2023-02-01T00:44:52;1.80;;;1.50;;
17826;SDS011;9038;48.208;16.308;2023-02-01T00:46:54;2.60;;;1.47;;
17826;SDS011;9038;48.208;16.308;2023-02-01T00:48:56;4.00;;;1.57;;
17826;SDS011;9038;48.208;16.308;2023-02-01T00:51:01;2.23;;;1.50;;
17826;SDS011;9038;48.208;16.308;2023-02-01T00:53:04;1.73;;;1.63;;
17826;SDS011;9038;48.208;16.308;2023-02-01T00:55:06;2.30;;;1.70;;
17826;SDS011;9038;48.208;16.308;2023-02-01T00:57:10;2.00;;;1.80;;
17826;SDS011;9038;48.208;16.308;2023-02-01T00:59:12;2.00;;;1.77;;
17826;SDS011;9038;48.208;16.308;2023-02-01T01:01:15;3.57;;;1.90;;
17826;SDS011;9038;48.208;16.308;2023-02-01T01:03:18;1.83;;;1.73;;
17826;SDS011;9038;48.208;16.308;2023-02-01T01:05:21;2.80;;;2.23;;
17826;SDS011;9038;48.208;16.308;2023-02-01T01:07:24;2.30;;;2.10;;
17826;SDS011;9038;48.208;16.308;2023-02-01T01:09:29;2.30;;;2.07;;
17826;SDS011;9038;48.208;16.308;2023-02-01T01:11:32;2.17;;;1.97;;
17826;SDS011;9038;48.208;16.308;2023-02-01T01:13:35;2.77;;;2.00;;
17826;SDS011;9038;48.208;16.308;2023-02-01T01:15:38;2.47;;;2.00;;
17826;SDS011;9038;48.208;16.308;2023-02-01T01:17:40;2.10;;;1.90;;
17826;SDS011;9038;48.208;16.308;2023-02-01T01:19:42;1.90;;;1.80;;
17826;SDS011;9038;48.208;16.308;2023-02-01T01:21:48;4.07;;;1.93;;
17826;SDS011;9038;48.208;16.308;2023-02-01T01:23:52;1.53;;;1.30;;
17826;SDS011;9038;48.208;16.308;2023-02-01T01:25:55;1.30;;;1.20;;
17826;SDS011;9038;48.208;16.308;2023-02-01T01:27:57;2.03;;;1.60;;
17826;SDS011;9038;48.208;16.308;2023-02-01T01:30:00;1.87;;;1.43;;
17826;SDS011;9038;48.208;16.308;2023-02-01T01:32:04;1.87;;;1.20;;
17826;SDS011;9038;48.208;16.308;2023-02-01T01:34:08;1.20;;;1.10;;
17826;SDS011;9038;48.208;16.308;2023-02-01T01:36:14;1.20;;;1.10;;
17826;SDS011;9038;48.208;16.308;2023-02-01T01:38:17;1.20;;;1.10;;
17826;SDS011;9038;48.208;16.308;2023-02-01T01:40:23;1.87;;;1.23;;
17826;SDS011;9038;48.208;16.308;2023-02-01T01:42:26;1.00;;;0.90;;
17826;SDS011;9038;48.208;16.308;2023-02-01T01:46:59;1.47;;;1.37;;
17826;SDS011;9038;48.208;16.308;2023-02-01T01:49:05;1.70;;;1.60;;
17826;SDS011;9038;48.208;16.308;2023-02-01T01:51:10;1.50;;;1.40;;
17826;SDS011;9038;48.208;16.308;2023-02-01T01:53:19;1.67;;;1.57;;
17826;SDS011;9038;48.208;16.308;2023-02-01T01:55:27;1.70;;;1.60;;
17826;SDS011;9038;48.208;16.308;2023-02-01T01:57:34;2.30;;;2.07;;
17826;SDS011;9038;48.208;16.308;2023-02-01T01:59:38;2.20;;;2.00;;
17826;SDS011;9038;48.208;16.308;2023-02-01T02:01:42;2.20;;;2.00;;
17826;SDS011;9038;48.208;16.308;2023-02-01T02:03:45;2.27;;;2.00;;
17826;SDS011;9038;48.208;16.308;2023-02-01T02:05:51;2.17;;;1.93;;
17826;SDS011;9038;48.208;16.308;2023-02-01T02:07:59;2.83;;;2.20;;
17826;SDS011;9038;48.208;16.308;2023-02-01T02:10:03;2.13;;;1.90;;
17826;SDS011;9038;48.208;16.308;2023-02-01T02:12:08;3.13;;;1.90;;
17826;SDS011;9038;48.208;16.308;2023-02-01T02:14:11;2.00;;;1.80;;
17826;SDS011;9038;48.208;16.308;2023-02-01T02:16:32;2.40;;;1.60;;
17826;SDS011;9038;48.208;16.308;2023-02-01T02:18:44;2.13;;;1.80;;
17826;SDS011;9038;48.208;16.308;2023-02-01T02:21:10;1.83;;;1.73;;
17826;SDS011;9038;48.208;16.308;2023-02-01T02:23:22;2.70;;;1.90;;
17826;SDS011;9038;48.208;16.308;2023-02-01T02:28:32;1.50;;;1.40;;
17826;SDS011;9038;48.208;16.308;2023-02-01T02:30:57;1.60;;;1.50;;
17826;SDS011;9038;48.208;16.308;2023-02-01T02:33:28;2.13;;;1.50;;
17826;SDS011;9038;48.208;16.308;2023-02-01T02:35:46;1.80;;;1.67;;
17826;SDS011;9038;48.208;16.308;2023-02-01T02:37:54;1.60;;;1.50;;
17826;SDS011;9038;48.208;16.308;2023-02-01T02:40:04;2.40;;;1.73;;
17826;SDS011;9038;48.208;16.308;2023-02-01T02:42:14;2.03;;;1.57;;
17826;SDS011;9038;48.208;16.308;2023-02-01T02:44:44;1.77;;;1.63;;
17826;SDS011;9038;48.208;16.308;2023-02-01T02:47:09;2.73;;;1.90;;
17826;SDS011;9038;48.208;16.308;2023-02-01T02:49:29;1.80;;;1.70;;
17826;SDS011;9038;48.208;16.308;2023-02-01T02:51:40;2.20;;;1.90;;
17826;SDS011;9038;48.208;16.308;2023-02-01T02:54:02;1.80;;;1.70;;
17826;SDS011;9038;48.208;16.308;2023-02-01T02:56:25;2.17;;;1.70;;
17826;SDS011;9038;48.208;16.308;2023-02-01T02:58:46;1.73;;;1.63;;
17826;SDS011;9038;48.208;16.308;2023-02-01T03:01:06;2.57;;;1.50;;
17826;SDS011;9038;48.208;16.308;2023-02-01T03:03:25;1.90;;;1.70;;
17826;SDS011;9038;48.208;16.308;2023-02-01T03:05:47;1.40;;;1.30;;
17826;SDS011;9038;48.208;16.308;2023-02-01T03:08:00;1.63;;;1.37;;
17826;SDS011;9038;48.208;16.308;2023-02-01T03:10:07;1.93;;;1.63;;
17826;SDS011;9038;48.208;16.308;2023-02-01T03:12:14;1.50;;;1.40;;
17826;SDS011;9038;48.208;16.308;2023-02-01T03:14:37;1.50;;;1.40;;
17826;SDS011;9038;48.208;16.308;2023-02-01T03:16:47;1.77;;;1.67;;
17826;SDS011;9038;48.208;16.308;2023-02-01T03:18:54;4.00;;;1.67;;
17826;SDS011;9038;48.208;16.308;2023-02-01T03:21:02;2.17;;;1.70;;
17826;SDS011;9038;48.208;16.308;2023-02-01T03:23:08;1.50;;;1.40;;
17826;SDS011;9038;48.208;16.308;2023-02-01T03:25:14;2.10;;;1.90;;
17826;SDS011;9038;48.208;16.308;2023-02-01T03:27:20;3.77;;;2.17;;
17826;SDS011;9038;48.208;16.308;2023-02-01T03:29:27;1.90;;;1.80;;
17826;SDS011;9038;48.208;16.308;2023-02-01T03:31:34;2.20;;;1.60;;
17826;SDS011;9038;48.208;16.308;2023-02-01T03:33:36;2.20;;;2.00;;
17826;SDS011;9038;48.208;16.308;2023-02-01T03:35:39;2.33;;;1.90;;
17826;SDS011;9038;48.208;16.308;2023-02-01T03:37:47;2.10;;;1.90;;
17826;SDS011;9038;48.208;16.308;2023-02-01T03:39:52;2.40;;;1.80;;
17826;SDS011;9038;48.208;16.308;2023-02-01T03:42:00;2.10;;;1.67;;
17826;SDS011;9038;48.208;16.308;2023-02-01T03:44:06;3.00;;;2.10;;
17826;SDS011;9038;48.208;16.308;2023-02-01T03:46:16;2.33;;;2.13;;
17826;SDS011;9038;48.208;16.308;2023-02-01T03:48:23;2.10;;;1.90;;
17826;SDS011;9038;48.208;16.308;2023-02-01T03:50:28;2.30;;;2.10;;
17826;SDS011;9038;48.208;16.308;2023-02-01T03:52:32;3.80;;;1.90;;
17826;SDS011;9038;48.208;16.308;2023-02-01T03:54:42;2.37;;;2.17;;
17826;SDS011;9038;48.208;16.308;2023-02-01T03:56:46;2.10;;;1.90;;
17826;SDS011;9038;48.208;16.308;2023-02-01T03:58:49;4.13;;;2.33;;
17826;SDS011;9038;48.208;16.308;2023-02-01T04:00:59;2.57;;;2.37;;
17826;SDS011;9038;48.208;16.308;2023-02-01T04:03:01;2.40;;;2.07;;
17826;SDS011;9038;48.208;16.308;2023-02-01T04:05:08;4.30;;;2.57;;
17826;SDS011;9038;48.208;16.308;2023-02-01T04:07:15;3.67;;;2.60;;
17826;SDS011;9038;48.208;16.308;2023-02-01T04:09:18;2.50;;;2.30;;
17826;SDS011;9038;48.208;16.308;2023-02-01T04:11:22;2.47;;;2.20;;
17826;SDS011;9038;48.208;16.308;2023-02-01T04:13:24;2.93;;;2.63;;
17826;SDS011;9038;48.208;16.308;2023-02-01T04:15:26;2.40;;;2.20;;
17826;SDS011;9038;48.208;16.308;2023-02-01T04:17:28;2.70;;;2.30;;
17826;SDS011;9038;48.208;16.308;2023-02-01T04:19:30;2.70;;;2.20;;
17826;SDS011;9038;48.208;16.308;2023-02-01T04:21:32;3.10;;;2.60;;
17826;SDS011;9038;48.208;16.308;2023-02-01T04:23:34;3.13;;;2.80;;
17826;SDS011;9038;48.208;16.308;2023-02-01T04:25:36;4.07;;;2.50;;
17826;SDS011;9038;48.208;16.308;2023-02-01T04:27:39;2.70;;;2.40;;
17826;SDS011;9038;48.208;16.308;2023-02-01T04:29:41;3.40;;;2.77;;
17826;SDS011;9038;48.208;16.308;2023-02-01T04:31:45;2.87;;;2.43;;
17826;SDS011;9038;48.208;16.308;2023-02-01T04:33:47;4.13;;;2.67;;
17826;SDS011;9038;48.208;16.308;2023-02-01T04:35:49;3.37;;;2.47;;
17826;SDS011;9038;48.208;16.308;2023-02-01T04:37:51;2.50;;;2.30;;
17826;SDS011;9038;48.208;16.308;2023-02-01T04:39:53;5.13;;;2.40;;
17826;SDS011;9038;48.208;16.308;2023-02-01T04:41:55;2.80;;;2.60;;
17826;SDS011;9038;48.208;16.308;2023-02-01T04:43:59;3.20;;;2.87;;
17826;SDS011;9038;48.208;16.308;2023-02-01T04:46:01;3.03;;;2.77;;
17826;SDS011;9038;48.208;16.308;2023-02-01T04:48:04;3.93;;;2.80;;
17826;SDS011;9038;48.208;16.308;2023-02-01T04:50:07;4.07;;;2.90;;
17826;SDS011;9038;48.208;16.308;2023-02-01T04:52:11;2.77;;;2.57;;
17826;SDS011;9038;48.208;16.308;2023-02-01T04:54:14;3.77;;;2.70;;
17826;SDS011;9038;48.208;16.308;2023-02-01T04:56:16;2.77;;;2.50;;
17826;SDS011;9038;48.208;16.308;2023-02-01T04:58:18;3.33;;;2.50;;
17826;SDS011;9038;48.208;16.308;2023-02-01T05:00:23;3.23;;;2.60;;
17826;SDS011;9038;48.208;16.308;2023-02-01T05:02:25;2.57;;;2.30;;
17826;SDS011;9038;48.208;16.308;2023-02-01T05:04:27;2.73;;;2.47;;
17826;SDS011;9038;48.208;16.308;2023-02-01T05:06:29;2.50;;;2.30;;
17826;SDS011;9038;48.208;16.308;2023-02-01T05:08:31;3.00;;;2.30;;
17826;SDS011;9038;48.208;16.308;2023-02-01T05:10:33;2.50;;;2.30;;
17826;SDS011;9038;48.208;16.308;2023-02-01T05:12:35;3.03;;;2.63;;
17826;SDS011;9038;48.208;16.308;2023-02-01T05:14:55;4.07;;;2.70;;
17826;SDS011;9038;48.208;16.308;2023-02-01T05:16:58;3.70;;;2.60;;
17826;SDS011;9038;48.208;16.308;2023-02-01T05:19:00;2.67;;;2.47;;
17826;SDS011;9038;48.208;16.308;2023-02-01T05:21:03;2.67;;;2.43;;
17826;SDS011;9038;48.208;16.308;2023-02-01T05:23:06;2.63;;;2.43;;
17826;SDS011;9038;48.208;16.308;2023-02-01T05:25:08;2.70;;;2.50;;
17826;SDS011;9038;48.208;16.308;2023-02-01T05:27:10;3.63;;;2.53;;
17826;SDS011;9038;48.208;16.308;2023-02-01T05:29:13;2.90;;;2.50;;
17826;SDS011;9038;48.208;16.308;2023-02-01T05:31:17;2.80;;;2.60;;
17826;SDS011;9038;48.208;16.308;2023-02-01T05:33:22;4.17;;;3.10;;
17826;SDS011;9038;48.208;16.308;2023-02-01T05:35:24;3.63;;;3.00;;
17826;SDS011;9038;48.208;16.308;2023-02-01T05:37:26;3.10;;;2.80;;
17826;SDS011;9038;48.208;16.308;2023-02-01T05:39:28;3.70;;;2.70;;
17826;SDS011;9038;48.208;16.308;2023-02-01T05:41:31;3.00;;;2.70;;
17826;SDS011;9038;48.208;16.308;2023-02-01T05:43:33;4.23;;;3.20;;
17826;SDS011;9038;48.208;16.308;2023-02-01T05:45:35;3.17;;;2.80;;
17826;SDS011;9038;48.208;16.308;2023-02-01T05:47:37;3.27;;;2.90;;
17826;SDS011;9038;48.208;16.308;2023-02-01T05:49:40;2.80;;;2.60;;
17826;SDS011;9038;48.208;16.308;2023-02-01T05:51:42;2.90;;;2.60;;
17826;SDS011;9038;48.208;16.308;2023-02-01T05:53:44;3.40;;;2.60;;
17826;SDS011;9038;48.208;16.308;2023-02-01T05:55:46;4.33;;;2.80;;
17826;SDS011;9038;48.208;16.308;2023-02-01T05:57:48;3.53;;;2.50;;
17826;SDS011;9038;48.208;16.308;2023-02-01T05:59:50;4.73;;;2.43;;
17826;SDS011;9038;48.208;16.308;2023-02-01T06:01:52;2.63;;;2.43;;
17826;SDS011;9038;48.208;16.308;2023-02-01T06:03:54;3.80;;;2.50;;
17826;SDS011;9038;48.208;16.308;2023-02-01T06:05:58;3.00;;;2.70;;
17826;SDS011;9038;48.208;16.308;2023-02-01T06:08:02;3.37;;;2.40;;
17826;SDS011;9038;48.208;16.308;2023-02-01T06:10:08;3.27;;;2.27;;
17826;SDS011;9038;48.208;16.308;2023-02-01T06:12:11;3.57;;;2.90;;
17826;SDS011;9038;48.208;16.308;2023-02-01T06:14:14;4.03;;;2.90;;
17826;SDS011;9038;48.208;16.308;2023-02-01T06:16:16;5.67;;;3.03;;
17826;SDS011;9038;48.208;16.308;2023-02-01T06:18:18;4.23;;;3.33;;
17826;SDS011;9038;48.208;16.308;2023-02-01T06:20:21;2.80;;;2.60;;
17826;SDS011;9038;48.208;16.308;2023-02-01T06:22:25;3.80;;;2.93;;
17826;SDS011;9038;48.208;16.308;2023-02-01T06:24:27;3.43;;;2.80;;
17826;SDS011;9038;48.208;16.308;2023-02-01T06:26:29;3.40;;;3.10;;
17826;SDS011;9038;48.208;16.308;2023-02-01T06:28:31;4.13;;;3.17;;
17826;SDS011;9038;48.208;16.308;2023-02-01T06:30:35;4.67;;;2.67;;
17826;SDS011;9038;48.208;16.308;2023-02-01T06:32:50;4.37;;;2.50;;
17826;SDS011;9038;48.208;16.308;2023-02-01T06:34:54;2.90;;;2.60;;
17826;SDS011;9038;48.208;16.308;2023-02-01T06:36:59;3.37;;;3.00;;
17826;SDS011;9038;48.208;16.308;2023-02-01T06:39:05;3.10;;;2.80;;
17826;SDS011;9038;48.208;16.308;2023-02-01T06:41:08;3.30;;;2.70;;
17826;SDS011;9038;48.208;16.308;2023-02-01T06:43:11;5.13;;;2.70;;
17826;SDS011;9038;48.208;16.308;2023-02-01T06:45:13;3.57;;;2.57;;
17826;SDS011;9038;48.208;16.308;2023-02-01T06:47:18;2.53;;;2.33;;
17826;SDS011;9038;48.208;16.308;2023-02-01T06:49:20;3.00;;;2.57;;
17826;SDS011;9038;48.208;16.308;2023-02-01T06:51:23;3.03;;;2.43;;
17826;SDS011;9038;48.208;16.308;2023-02-01T06:53:26;3.03;;;2.40;;
17826;SDS011;9038;48.208;16.308;2023-02-01T06:55:30;2.90;;;2.50;;
17826;SDS011;9038;48.208;16.308;2023-02-01T06:57:35;2.40;;;2.20;;
17826;SDS011;9038;48.208;16.308;2023-02-01T06:59:37;3.20;;;2.33;;
17826;SDS011;9038;48.208;16.308;2023-02-01T07:01:39;2.63;;;2.43;;
17826;SDS011;9038;48.208;16.308;2023-02-01T07:03:46;2.53;;;2.23;;
17826;SDS011;9038;48.208;16.308;2023-02-01T07:05:55;2.57;;;2.27;;
17826;SDS011;9038;48.208;16.308;2023-02-01T07:07:59;4.00;;;2.40;;
17826;SDS011;9038;48.208;16.308;2023-02-01T07:10:01;2.97;;;2.23;;
17826;SDS011;9038;48.208;16.308;2023-02-01T07:12:05;4.87;;;3.03;;
17826;SDS011;9038;48.208;16.308;2023-02-01T07:14:09;3.07;;;2.50;;
17826;SDS011;9038;48.208;16.308;2023-02-01T07:16:12;3.17;;;2.37;;
17826;SDS011;9038;48.208;16.308;2023-02-01T07:18:15;2.67;;;2.37;;
17826;SDS011;9038;48.208;16.308;2023-02-01T07:20:17;3.00;;;2.40;;
17826;SDS011;9038;48.208;16.308;2023-02-01T07:22:19;3.20;;;2.20;;
17826;SDS011;9038;48.208;16.308;2023-02-01T07:24:21;2.43;;;2.00;;
17826;SDS011;9038;48.208;16.308;2023-02-01T07:26:23;2.50;;;2.30;;
17826;SDS011;9038;48.208;16.308;2023-02-01T07:28:27;2.70;;;2.10;;
17826;SDS011;9038;48.208;16.308;2023-02-01T07:30:30;3.13;;;2.50;;
17826;SDS011;9038;48.208;16.308;2023-02-01T07:32:32;2.70;;;2.17;;
17826;SDS011;9038;48.208;16.308;2023-02-01T07:34:34;2.30;;;2.10;;
17826;SDS011;9038;48.208;16.308;2023-02-01T07:36:36;2.60;;;2.10;;
17826;SDS011;9038;48.208;16.308;2023-02-01T07:38:38;2.37;;;2.17;;
17826;SDS011;9038;48.208;16.308;2023-02-01T19:17:30;53.37;;;27.40;;
17826;SDS011;9038;48.208;16.308;2023-02-01T19:19:33;82.03;;;32.20;;
17826;SDS011;9038;48.208;16.308;2023-02-01T19:21:37;55.92;;;27.75;;
17826;SDS011;9038;48.208;16.308;2023-02-01T19:23:40;32.80;;;22.00;;
17826;SDS011;9038;48.208;16.308;2023-02-01T19:25:43;28.07;;;20.37;;
17826;SDS011;9038;48.208;16.308;2023-02-01T19:27:48;22.70;;;18.70;;
17826;SDS011;9038;48.208;16.308;2023-02-01T19:29:51;19.57;;;17.60;;
17826;SDS011;9038;48.208;16.308;2023-02-01T19:31:55;18.63;;;17.03;;
17826;SDS011;9038;48.208;16.308;2023-02-01T19:34:00;16.03;;;14.77;;
17826;SDS011;9038;48.208;16.308;2023-02-01T19:36:04;14.70;;;13.57;;
17826;SDS011;9038;48.208;16.308;2023-02-01T19:38:09;19.17;;;17.37;;
17826;SDS011;9038;48.208;16.308;2023-02-01T19:40:14;12.30;;;11.50;;
17826;SDS011;9038;48.208;16.308;2023-02-01T19:42:18;5.17;;;3.17;;
17826;SDS011;9038;48.208;16.308;2023-02-01T19:44:21;5.97;;;3.40;;
17826;SDS011;9038;48.208;16.308;2023-02-01T19:46:23;6.60;;;2.53;;
17826;SDS011;9038;48.208;16.308;2023-02-01T19:48:27;7.00;;;2.83;;
17826;SDS011;9038;48.208;16.308;2023-02-01T19:50:38;6.93;;;2.80;;
17826;SDS011;9038;48.208;16.308;2023-02-01T19:52:41;6.60;;;2.43;;
17826;SDS011;9038;48.208;16.308;2023-02-01T19:54:45;6.20;;;1.70;;
17826;SDS011;9038;48.208;16.308;2023-02-01T19:56:48;68.67;;;16.33;;
17826;SDS011;9038;48.208;16.308;2023-02-01T19:58:54;114.30;;;27.60;;
17826;SDS011;9038;48.208;16.308;2023-02-01T20:00:57;29.10;;;5.93;;
17826;SDS011;9038;48.208;16.308;2023-02-01T20:03:00;196.20;;;44.27;;
17826;SDS011;9038;48.208;16.308;2023-02-01T20:05:04;74.87;;;17.17;;
17826;SDS011;9038;48.208;16.308;2023-02-01T20:07:12;192.03;;;56.73;;
17826;SDS011;9038;48.208;16.308;2023-02-01T20:09:16;71.03;;;16.07;;
17826;SDS011;9038;48.208;16.308;2023-02-01T20:11:20;16.00;;;4.63;;
17826;SDS011;9038;48.208;16.308;2023-02-01T20:13:25;52.40;;;10.03;;
17826;SDS011;9038;48.208;16.308;2023-02-01T20:15:28;270.63;;;66.07;;
17826;SDS011;9038;48.208;16.308;2023-02-01T20:17:31;278.03;;;59.90;;
17826;SDS011;9038;48.208;16.308;2023-02-01T20:19:35;269.97;;;55.93;;
17826;SDS011;9038;48.208;16.308;2023-02-01T20:21:37;169.33;;;39.07;;
17826;SDS011;9038;48.208;16.308;2023-02-01T20:23:46;388.30;;;95.40;;
17826;SDS011;9038;48.208;16.308;2023-02-01T20:25:49;61.67;;;12.90;;
17826;SDS011;9038;48.208;16.308;2023-02-01T20:27:53;273.10;;;63.87;;
17826;SDS011;9038;48.208;16.308;2023-02-01T20:29:58;322.77;;;102.43;;
17826;SDS011;9038;48.208;16.308;2023-02-01T20:32:02;273.90;;;65.30;;
17826;SDS011;9038;48.208;16.308;2023-02-01T20:34:05;391.90;;;86.30;;
17826;SDS011;9038;48.208;16.308;2023-02-01T20:36:08;278.63;;;85.10;;
17826;SDS011;9038;48.208;16.308;2023-02-01T20:38:11;271.50;;;78.27;;
17826;SDS011;9038;48.208;16.308;2023-02-01T20:40:16;274.63;;;86.97;;
17826;SDS011;9038;48.208;16.308;2023-02-01T20:42:19;52.60;;;10.80;;
17826;SDS011;9038;48.208;16.308;2023-02-01T20:44:23;83.27;;;17.30;;
17826;SDS011;9038;48.208;16.308;2023-02-01T20:46:26;296.10;;;82.90;;
17826;SDS011;9038;48.208;16.308;2023-02-01T20:48:29;84.80;;;15.00;;
17826;SDS011;9038;48.208;16.308;2023-02-01T20:50:32;38.73;;;7.37;;
17826;SDS011;9038;48.208;16.308;2023-02-01T20:52:35;271.63;;;79.97;;
17826;SDS011;9038;48.208;16.308;2023-02-01T20:54:39;173.83;;;43.83;;
17826;SDS011;9038;48.208;16.308;2023-02-01T20:56:44;192.43;;;43.47;;
17826;SDS011;9038;48.208;16.308;2023-02-01T20:58:47;410.33;;;118.30;;
17826;SDS011;9038;48.208;16.308;2023-02-01T21:00:50;281.13;;;92.07;;
17826;SDS011;9038;48.208;16.308;2023-02-01T21:02:55;273.83;;;86.87;;
17826;SDS011;9038;48.208;16.308;2023-02-01T21:04:57;191.07;;;51.43;;
17826;SDS011;9038;48.208;16.308;2023-02-01T21:07:00;47.87;;;9.37;;
17826;SDS011;9038;48.208;16.308;2023-02-01T21:09:03;23.17;;;4.30;;
17826;SDS011;9038;48.208;16.308;2023-02-01T21:11:07;191.40;;;56.20;;
17826;SDS011;9038;48.208;16.308;2023-02-01T21:13:12;227.83;;;53.07;;
17826;SDS011;9038;48.208;16.308;2023-02-01T21:15:15;9.70;;;2.40;;
17826;SDS011;9038;48.208;16.308;2023-02-01T21:17:18;119.97;;;27.90;;
17826;SDS011;9038;48.208;16.308;2023-02-01T21:19:21;9.00;;;2.40;;
17826;SDS011;9038;48.208;16.308;2023-02-01T21:21:25;35.63;;;5.63;;
17826;SDS011;9038;48.208;16.308;2023-02-01T21:23:28;9.33;;;2.13;;
17826;SDS011;9038;48.208;16.308;2023-02-01T21:25:30;7.43;;;1.90;;
17826;SDS011;9038;48.208;16.308;2023-02-01T21:27:32;8.20;;;2.43;;
17826;SDS011;9038;48.208;16.308;2023-02-01T21:29:36;8.10;;;2.37;;
17826;SDS011;9038;48.208;16.308;2023-02-01T21:31:39;21.27;;;4.70;;
17826;SDS011;9038;48.208;16.308;2023-02-01T21:33:42;208.43;;;74.07;;
17826;SDS011;9038;48.208;16.308;2023-02-01T21:35:48;11.77;;;3.07;;
17826;SDS011;9038;48.208;16.308;2023-02-01T21:37:51;11.93;;;3.10;;
17826;SDS011;9038;48.208;16.308;2023-02-01T21:39:54;7.40;;;2.23;;
17826;SDS011;9038;48.208;16.308;2023-02-01T21:41:56;7.67;;;2.03;;
17826;SDS011;9038;48.208;16.308;2023-02-01T21:44:13;7.43;;;2.40;;
17826;SDS011;9038;48.208;16.308;2023-02-01T21:46:17;8.27;;;2.17;;
17826;SDS011;9038;48.208;16.308;2023-02-01T21:48:19;7.37;;;2.10;;
17826;SDS011;9038;48.208;16.308;2023-02-01T21:50:22;7.87;;;2.37;;
17826;SDS011;9038;48.208;16.308;2023-02-01T21:52:24;8.03;;;2.17;;
17826;SDS011;9038;48.208;16.308;2023-02-01T21:54:27;7.63;;;2.37;;
17826;SDS011;9038;48.208;16.308;2023-02-01T21:56:29;7.83;;;2.40;;
17826;SDS011;9038;48.208;16.308;2023-02-01T21:58:32;8.57;;;2.70;;
17826;SDS011;9038;48.208;16.308;2023-02-01T22:00:34;10.67;;;2.90;;
17826;SDS011;9038;48.208;16.308;2023-02-01T22:02:37;12.07;;;3.70;;
17826;SDS011;9038;48.208;16.308;2023-02-01T22:04:39;7.63;;;2.30;;
17826;SDS011;9038;48.208;16.308;2023-02-01T22:06:42;8.70;;;2.67;;
17826;SDS011;9038;48.208;16.308;2023-02-01T22:08:45;8.67;;;2.50;;
17826;SDS011;9038;48.208;16.308;2023-02-01T22:10:47;50.67;;;7.97;;
17826;SDS011;9038;48.208;16.308;2023-02-01T22:12:49;184.90;;;38.77;;
17826;SDS011;9038;48.208;16.308;2023-02-01T22:14:51;383.10;;;89.10;;
17826;SDS011;9038;48.208;16.308;2023-02-01T22:16:53;391.37;;;102.90;;
17826;SDS011;9038;48.208;16.308;2023-02-01T22:18:56;112.07;;;25.93;;
17826;SDS011;9038;48.208;16.308;2023-02-01T22:20:59;296.50;;;128.20;;
17826;SDS011;9038;48.208;16.308;2023-02-01T22:23:02;12.60;;;3.30;;
17826;SDS011;9038;48.208;16.308;2023-02-01T22:25:04;14.73;;;3.40;;
17826;SDS011;9038;48.208;16.308;2023-02-01T22:27:08;11.13;;;3.00;;
17826;SDS011;9038;48.208;16.308;2023-02-01T22:29:10;19.90;;;4.80;;
17826;SDS011;9038;48.208;16.308;2023-02-01T22:31:13;10.90;;;2.83;;
17826;SDS011;9038;48.208;16.308;2023-02-01T22:33:15;7.33;;;2.07;;
17826;SDS011;9038;48.208;16.308;2023-02-01T22:35:19;9.63;;;3.13;;
17826;SDS011;9038;48.208;16.308;2023-02-01T22:37:21;17.90;;;4.63;;
17826;SDS011;9038;48.208;16.308;2023-02-01T22:39:23;13.60;;;3.63;;
17826;SDS011;9038;48.208;16.308;2023-02-01T22:41:25;18.47;;;5.63;;
17826;SDS011;9038;48.208;16.308;2023-02-01T22:43:27;10.87;;;3.07;;
17826;SDS011;9038;48.208;16.308;2023-02-01T22:45:29;11.23;;;3.27;;
17826;SDS011;9038;48.208;16.308;2023-02-01T22:47:31;31.80;;;4.40;;
17826;SDS011;9038;48.208;16.308;2023-02-01T22:49:33;12.03;;;3.07;;
17826;SDS011;9038;48.208;16.308;2023-02-01T22:51:36;10.00;;;2.73;;
17826;SDS011;9038;48.208;16.308;2023-02-01T22:53:38;19.87;;;5.43;;
17826;SDS011;9038;48.208;16.308;2023-02-01T22:55:40;385.03;;;128.13;;
17826;SDS011;9038;48.208;16.308;2023-02-01T22:57:44;22.03;;;5.03;;
17826;SDS011;9038;48.208;16.308;2023-02-01T22:59:46;8.37;;;2.33;;
17826;SDS011;9038;48.208;16.308;2023-02-01T23:01:49;189.87;;;41.70;;
17826;SDS011;9038;48.208;16.308;2023-02-01T23:03:54;27.70;;;5.17;;
17826;SDS011;9038;48.208;16.308;2023-02-01T23:05:58;24.77;;;4.50;;
17826;SDS011;9038;48.208;16.308;2023-02-01T23:08:04;11.53;;;3.03;;
17826;SDS011;9038;48.208;16.308;2023-02-01T23:10:10;49.70;;;5.47;;
17826;SDS011;9038;48.208;16.308;2023-02-01T23:12:13;69.80;;;14.17;;
17826;SDS011;9038;48.208;16.308;2023-02-01T23:14:15;68.90;;;12.23;;
17826;SDS011;9038;48.208;16.308;2023-02-01T23:16:20;111.00;;;20.97;;
17826;SDS011;9038;48.208;16.308;2023-02-01T23:18:23;392.70;;;111.10;;
17826;SDS011;9038;48.208;16.308;2023-02-01T23:20:27;305.50;;;83.67;;
17826;SDS011;9038;48.208;16.308;2023-02-01T23:22:31;365.43;;;106.43;;
17826;SDS011;9038;48.208;16.308;2023-02-01T23:24:34;117.57;;;24.13;;
17826;SDS011;9038;48.208;16.308;2023-02-01T23:26:37;487.00;;;149.07;;
17826;SDS011;9038;48.208;16.308;2023-02-01T23:28:39;57.23;;;9.70;;
17826;SDS011;9038;48.208;16.308;2023-02-01T23:30:41;18.63;;;3.83;;
17826;SDS011;9038;48.208;16.308;2023-02-01T23:32:43;285.70;;;82.13;;
17826;SDS011;9038;48.208;16.308;2023-02-01T23:34:45;423.10;;;118.87;;
17826;SDS011;9038;48.208;16.308;2023-02-01T23:36:47;408.97;;;117.10;;
17826;SDS011;9038;48.208;16.308;2023-02-01T23:38:49;319.77;;;97.40;;
17826;SDS011;9038;48.208;16.308;2023-02-01T23:40:55;101.93;;;20.90;;
17826;SDS011;9038;48.208;16.308;2023-02-01T23:42:58;16.03;;;3.20;;
17826;SDS011;9038;48.208;16.308;2023-02-01T23:45:16;9.00;;;2.33;;
17826;SDS011;9038;48.208;16.308;2023-02-01T23:47:18;9.30;;;2.40;;
17826;SDS011;9038;48.208;16.308;2023-02-01T23:49:20;12.47;;;3.37;;
17826;SDS011;9038;48.208;16.308;2023-02-01T23:51:22;9.87;;;3.77;;
17826;SDS011;9038;48.208;16.308;2023-02-01T23:53:25;9.93;;;2.53;;
17826;SDS011;9038;48.208;16.308;2023-02-01T23:55:27;12.97;;;3.07;;
17826;SDS011;9038;48.208;16.308;2023-02-01T23:57:30;10.53;;;2.43;;
17826;SDS011;9038;48.208;16.308;2023-02-01T23:59:32;9.50;;;2.43;;
